sensor_id;sensor_type;location;lat;lon;timestamp;pressure;altitude;pressure_sealevel;temperature;humidity
25610;BME280;13479;49.044;8.716;2024-03-08T05:01:15;98648.78;;;2.59;74.30
25610;BME280;13479;49.044;8.716;2024-03-08T05:03:40;98645.13;;;2.47;74.60
25610;BME280;13479;49.044;8.716;2024-03-08T05:06:05;98623.59;;;2.42;74.92
25610;BME280;13479;49.044;8.716;2024-03-08T05:08:31;98642.34;;;2.51;74.69
25610;BME280;13479;49.044;8.716;2024-03-08T05:10:56;98674.56;;;2.67;73.27
25610;BME280;13479;49.044;8.716;2024-03-08T05:13:22;98683.91;;;2.57;74.39
25610;BME280;13479;49.044;8.716;2024-03-08T05:15:48;98667.03;;;2.46;75.05
25610;BME280;13479;49.044;8.716;2024-03-08T05:18:15;98653.75;;;2.50;74.14
25610;BME280;13479;49.044;8.716;2024-03-08T05:20:40;98671.94;;;2.53;73.54
25610;BME280;13479;49.044;8.716;2024-03-08T05:23:06;98640.50;;;2.37;74.81
25610;BME280;13479;49.044;8.716;2024-03-08T05:25:31;98635.19;;;2.38;74.33
25610;BME280;13479;49.044;8.716;2024-03-08T05:27:57;98647.59;;;2.51;74.12
25610;BME280;13479;49.044;8.716;2024-03-08T05:30:23;98635.38;;;2.35;75.13
25610;BME280;13479;49.044;8.716;2024-03-08T05:32:48;98630.72;;;2.40;74.79
25610;BME280;13479;49.044;8.716;2024-03-08T05:35:13;98631.66;;;2.39;74.93
25610;BME280;13479;49.044;8.716;2024-03-08T05:37:41;98625.66;;;2.37;74.89
25610;BME280;13479;49.044;8.716;2024-03-08T05:40:07;98631.22;;;2.47;74.47
25610;BME280;13479;49.044;8.716;2024-03-08T05:42:37;98628.09;;;2.40;74.36
25610;BME280;13479;49.044;8.716;2024-03-08T05:45:06;98629.31;;;2.35;75.21
25610;BME280;13479;49.044;8.716;2024-03-08T05:47:32;98615.53;;;2.31;75.14
25610;BME280;13479;49.044;8.716;2024-03-08T05:50:00;98617.03;;;2.35;75.62
25610;BME280;13479;49.044;8.716;2024-03-08T05:52:25;98624.50;;;2.27;75.22
25610;BME280;13479;49.044;8.716;2024-03-08T05:54:51;98607.94;;;2.26;76.12
25610;BME280;13479;49.044;8.716;2024-03-08T05:57:16;98600.84;;;2.28;75.91
25610;BME280;13479;49.044;8.716;2024-03-08T05:59:42;98610.28;;;2.31;75.58
25610;BME280;13479;49.044;8.716;2024-03-08T06:02:07;98625.47;;;2.40;76.03
25610;BME280;13479;49.044;8.716;2024-03-08T06:04:32;98647.75;;;2.47;75.75
25610;BME280;13479;49.044;8.716;2024-03-08T06:06:57;98633.13;;;2.43;75.50
25610;BME280;13479;49.044;8.716;2024-03-08T06:09:23;98631.72;;;2.38;75.40
25610;BME280;13479;49.044;8.716;2024-03-08T06:11:49;98624.28;;;2.46;75.87
25610;BME280;13479;49.044;8.716;2024-03-08T06:14:15;98634.81;;;2.44;75.69
25610;BME280;13479;49.044;8.716;2024-03-08T06:16:46;98631.28;;;2.45;75.49
25610;BME280;13479;49.044;8.716;2024-03-08T06:19:12;98630.00;;;2.53;75.75
25610;BME280;13479;49.044;8.716;2024-03-08T06:21:38;98647.38;;;2.54;75.58
25610;BME280;13479;49.044;8.716;2024-03-08T06:24:03;98654.03;;;2.59;74.99
25610;BME280;13479;49.044;8.716;2024-03-08T06:26:29;98702.88;;;2.91;73.91
25610;BME280;13479;49.044;8.716;2024-03-08T06:28:55;98760.22;;;2.97;73.64
25610;BME280;13479;49.044;8.716;2024-03-08T06:31:20;98774.81;;;3.01;73.31
25610;BME280;13479;49.044;8.716;2024-03-08T06:33:45;98779.22;;;3.01;73.24
25610;BME280;13479;49.044;8.716;2024-03-08T06:36:11;98767.53;;;3.06;73.00
25610;BME280;13479;49.044;8.716;2024-03-08T06:38:39;98804.38;;;3.19;72.56
25610;BME280;13479;49.044;8.716;2024-03-08T06:41:11;98796.31;;;3.22;72.87
25610;BME280;13479;49.044;8.716;2024-03-08T06:43:40;98803.81;;;3.29;72.59
25610;BME280;13479;49.044;8.716;2024-03-08T06:46:06;98800.47;;;3.41;71.85
25610;BME280;13479;49.044;8.716;2024-03-08T06:48:31;98793.53;;;3.40;72.48
25610;BME280;13479;49.044;8.716;2024-03-08T06:50:57;98783.63;;;3.60;71.80
25610;BME280;13479;49.044;8.716;2024-03-08T06:53:23;98811.72;;;3.58;71.75
25610;BME280;13479;49.044;8.716;2024-03-08T06:55:49;98807.78;;;3.79;71.04
25610;BME280;13479;49.044;8.716;2024-03-08T06:58:14;98833.00;;;3.96;69.85
25610;BME280;13479;49.044;8.716;2024-03-08T07:00:39;98824.44;;;4.07;69.41
25610;BME280;13479;49.044;8.716;2024-03-08T07:03:07;98798.84;;;4.11;68.82
25610;BME280;13479;49.044;8.716;2024-03-08T07:05:34;98796.22;;;4.11;69.18
25610;BME280;13479;49.044;8.716;2024-03-08T07:08:00;98778.81;;;4.23;69.31
25610;BME280;13479;49.044;8.716;2024-03-08T07:10:25;98792.94;;;4.35;68.73
25610;BME280;13479;49.044;8.716;2024-03-08T07:12:51;98803.63;;;4.46;67.65
25610;BME280;13479;49.044;8.716;2024-03-08T07:15:16;98775.63;;;4.45;67.85
25610;BME280;13479;49.044;8.716;2024-03-08T07:17:44;98792.31;;;4.58;67.07
25610;BME280;13479;49.044;8.716;2024-03-08T07:20:10;98775.72;;;4.71;66.52
25610;BME280;13479;49.044;8.716;2024-03-08T07:22:38;98769.22;;;4.76;66.35
25610;BME280;13479;49.044;8.716;2024-03-08T07:25:05;98771.78;;;4.78;65.92
25610;BME280;13479;49.044;8.716;2024-03-08T07:27:52;98766.84;;;4.86;65.40
25610;BME280;13479;49.044;8.716;2024-03-08T07:30:18;98760.13;;;4.95;65.39
25610;BME280;13479;49.044;8.716;2024-03-08T07:33:03;98769.72;;;5.22;64.07
25610;BME280;13479;49.044;8.716;2024-03-08T07:35:29;98774.06;;;6.12;62.47
25610;BME280;13479;49.044;8.716;2024-03-08T07:37:54;98776.59;;;7.33;57.61
25610;BME280;13479;49.044;8.716;2024-03-08T07:40:23;98772.00;;;8.15;56.36
25610;BME280;13479;49.044;8.716;2024-03-08T07:42:49;98779.47;;;8.65;53.27
25610;BME280;13479;49.044;8.716;2024-03-08T07:45:15;98767.31;;;8.62;52.65
25610;BME280;13479;49.044;8.716;2024-03-08T07:47:41;98763.16;;;8.81;51.89
25610;BME280;13479;49.044;8.716;2024-03-08T07:50:07;98759.69;;;9.02;50.98
25610;BME280;13479;49.044;8.716;2024-03-08T07:52:33;98767.22;;;8.85;50.86
25610;BME280;13479;49.044;8.716;2024-03-08T07:54:59;98770.28;;;9.02;50.64
25610;BME280;13479;49.044;8.716;2024-03-08T07:57:24;98751.06;;;9.31;50.60
25610;BME280;13479;49.044;8.716;2024-03-08T07:59:51;98749.88;;;8.92;50.41
25610;BME280;13479;49.044;8.716;2024-03-08T08:02:16;98749.03;;;9.13;50.32
25610;BME280;13479;49.044;8.716;2024-03-08T08:04:41;98753.16;;;9.89;49.45
25610;BME280;13479;49.044;8.716;2024-03-08T08:07:07;98768.31;;;10.18;47.61
25610;BME280;13479;49.044;8.716;2024-03-08T08:09:33;98762.94;;;9.57;48.25
25610;BME280;13479;49.044;8.716;2024-03-08T08:12:00;98726.72;;;8.52;50.62
25610;BME280;13479;49.044;8.716;2024-03-08T08:14:27;98669.19;;;7.89;53.24
25610;BME280;13479;49.044;8.716;2024-03-08T08:16:53;98640.53;;;7.73;53.98
25610;BME280;13479;49.044;8.716;2024-03-08T08:19:18;98629.44;;;7.24;55.11
25610;BME280;13479;49.044;8.716;2024-03-08T08:21:44;98621.25;;;7.04;55.26
25610;BME280;13479;49.044;8.716;2024-03-08T08:24:09;98613.22;;;6.72;56.59
25610;BME280;13479;49.044;8.716;2024-03-08T08:26:35;98602.72;;;6.59;56.86
25610;BME280;13479;49.044;8.716;2024-03-08T08:29:01;98591.81;;;6.41;58.26
25610;BME280;13479;49.044;8.716;2024-03-08T08:31:26;98598.13;;;6.27;58.69
25610;BME280;13479;49.044;8.716;2024-03-08T08:33:52;98584.97;;;6.02;59.70
25610;BME280;13479;49.044;8.716;2024-03-08T08:36:23;98572.56;;;5.92;60.36
25610;BME280;13479;49.044;8.716;2024-03-08T08:38:48;98573.38;;;6.05;59.58
25610;BME280;13479;49.044;8.716;2024-03-08T08:41:14;98568.22;;;5.79;60.48
25610;BME280;13479;49.044;8.716;2024-03-08T08:43:39;98559.63;;;5.64;61.69
25610;BME280;13479;49.044;8.716;2024-03-08T08:46:04;98569.63;;;5.48;61.89
25610;BME280;13479;49.044;8.716;2024-03-08T08:48:29;98559.97;;;5.35;61.90
25610;BME280;13479;49.044;8.716;2024-03-08T08:50:56;98556.00;;;5.30;62.92
25610;BME280;13479;49.044;8.716;2024-03-08T08:53:21;98568.00;;;5.34;62.74
25610;BME280;13479;49.044;8.716;2024-03-08T08:55:47;98571.78;;;5.30;63.18
25610;BME280;13479;49.044;8.716;2024-03-08T08:58:12;98566.72;;;5.26;63.17
25610;BME280;13479;49.044;8.716;2024-03-08T09:00:38;98556.81;;;5.30;62.87
25610;BME280;13479;49.044;8.716;2024-03-08T09:03:04;98567.75;;;5.37;63.27
25610;BME280;13479;49.044;8.716;2024-03-08T09:05:32;98575.66;;;5.37;62.51
25610;BME280;13479;49.044;8.716;2024-03-08T09:07:59;98579.75;;;5.41;63.12
25610;BME280;13479;49.044;8.716;2024-03-08T09:10:25;98574.28;;;5.44;62.47
25610;BME280;13479;49.044;8.716;2024-03-08T09:12:50;98561.31;;;5.41;63.34
25610;BME280;13479;49.044;8.716;2024-03-08T09:15:15;98554.91;;;5.45;63.21
25610;BME280;13479;49.044;8.716;2024-03-08T09:17:42;98582.44;;;5.52;62.64
25610;BME280;13479;49.044;8.716;2024-03-08T09:20:10;98551.69;;;5.53;63.77
25610;BME280;13479;49.044;8.716;2024-03-08T09:22:35;98571.91;;;5.77;62.84
25610;BME280;13479;49.044;8.716;2024-03-08T09:25:01;98607.03;;;5.64;62.48
25610;BME280;13479;49.044;8.716;2024-03-08T09:27:27;98586.81;;;5.65;63.52
25610;BME280;13479;49.044;8.716;2024-03-08T09:29:53;98591.94;;;5.79;61.98
25610;BME280;13479;49.044;8.716;2024-03-08T09:32:18;98621.41;;;5.84;61.96
25610;BME280;13479;49.044;8.716;2024-03-08T09:34:43;98632.28;;;5.80;62.06
25610;BME280;13479;49.044;8.716;2024-03-08T09:37:09;98626.72;;;5.71;62.23
25610;BME280;13479;49.044;8.716;2024-03-08T09:39:34;98621.13;;;5.76;61.67
25610;BME280;13479;49.044;8.716;2024-03-08T09:42:01;98631.06;;;5.60;62.35
25610;BME280;13479;49.044;8.716;2024-03-08T09:44:26;98600.88;;;5.77;62.34
25610;BME280;13479;49.044;8.716;2024-03-08T09:46:54;98638.38;;;5.80;61.52
25610;BME280;13479;49.044;8.716;2024-03-08T09:49:20;98634.34;;;5.87;61.25
25610;BME280;13479;49.044;8.716;2024-03-08T09:51:45;98626.72;;;5.96;62.02
25610;BME280;13479;49.044;8.716;2024-03-08T09:54:11;98654.16;;;5.93;61.05
25610;BME280;13479;49.044;8.716;2024-03-08T09:56:39;98648.25;;;5.90;61.57
25610;BME280;13479;49.044;8.716;2024-03-08T09:59:06;98612.16;;;6.03;61.73
25610;BME280;13479;49.044;8.716;2024-03-08T10:01:50;98666.03;;;6.23;60.28
25610;BME280;13479;49.044;8.716;2024-03-08T10:04:17;98656.66;;;6.08;60.45
25610;BME280;13479;49.044;8.716;2024-03-08T10:06:43;98648.34;;;6.01;60.65
25610;BME280;13479;49.044;8.716;2024-03-08T10:09:08;98632.28;;;6.04;61.38
25610;BME280;13479;49.044;8.716;2024-03-08T10:11:35;98630.91;;;6.11;61.10
25610;BME280;13479;49.044;8.716;2024-03-08T10:14:00;98631.84;;;6.10;61.00
25610;BME280;13479;49.044;8.716;2024-03-08T10:16:29;98621.13;;;6.36;60.73
25610;BME280;13479;49.044;8.716;2024-03-08T10:18:58;98648.38;;;6.37;60.46
25610;BME280;13479;49.044;8.716;2024-03-08T10:21:23;98634.22;;;6.38;60.45
25610;BME280;13479;49.044;8.716;2024-03-08T10:23:49;98646.19;;;6.30;59.35
25610;BME280;13479;49.044;8.716;2024-03-08T10:26:16;98644.13;;;6.23;59.78
25610;BME280;13479;49.044;8.716;2024-03-08T10:28:44;98628.75;;;6.16;60.62
25610;BME280;13479;49.044;8.716;2024-03-08T10:31:10;98622.19;;;6.22;60.12
25610;BME280;13479;49.044;8.716;2024-03-08T10:33:35;98611.06;;;6.30;59.91
25610;BME280;13479;49.044;8.716;2024-03-08T10:36:03;98628.44;;;6.32;59.64
25610;BME280;13479;49.044;8.716;2024-03-08T10:38:31;98622.94;;;6.36;59.71
25610;BME280;13479;49.044;8.716;2024-03-08T10:40:57;98629.31;;;6.33;58.71
25610;BME280;13479;49.044;8.716;2024-03-08T10:43:24;98603.53;;;6.37;59.85
25610;BME280;13479;49.044;8.716;2024-03-08T10:46:20;98619.97;;;6.40;59.24
25610;BME280;13479;49.044;8.716;2024-03-08T10:48:49;98605.38;;;6.59;58.95
25610;BME280;13479;49.044;8.716;2024-03-08T10:51:15;98615.91;;;6.59;58.99
25610;BME280;13479;49.044;8.716;2024-03-08T10:53:41;98612.13;;;6.74;58.54
25610;BME280;13479;49.044;8.716;2024-03-08T10:56:06;98605.06;;;6.86;58.62
25610;BME280;13479;49.044;8.716;2024-03-08T10:58:33;98632.78;;;7.03;57.94
25610;BME280;13479;49.044;8.716;2024-03-08T11:00:59;98618.50;;;7.17;57.36
25610;BME280;13479;49.044;8.716;2024-03-08T11:06:09;98615.09;;;7.61;56.86
25610;BME280;13479;49.044;8.716;2024-03-08T11:08:39;98610.13;;;7.79;55.82
25610;BME280;13479;49.044;8.716;2024-03-08T11:11:04;98614.72;;;8.09;55.57
25610;BME280;13479;49.044;8.716;2024-03-08T11:13:42;98625.69;;;8.26;53.64
25610;BME280;13479;49.044;8.716;2024-03-08T11:16:10;98620.81;;;8.10;54.52
25610;BME280;13479;49.044;8.716;2024-03-08T11:18:36;98605.59;;;8.02;54.75
25610;BME280;13479;49.044;8.716;2024-03-08T11:21:08;98603.41;;;8.28;54.29
25610;BME280;13479;49.044;8.716;2024-03-08T11:23:37;98610.00;;;8.13;54.10
25610;BME280;13479;49.044;8.716;2024-03-08T11:26:03;98579.09;;;8.13;54.93
25610;BME280;13479;49.044;8.716;2024-03-08T11:28:32;98553.63;;;8.33;55.35
25610;BME280;13479;49.044;8.716;2024-03-08T11:33:26;98607.78;;;8.72;52.87
25610;BME280;13479;49.044;8.716;2024-03-08T11:35:52;98590.56;;;8.56;53.77
25610;BME280;13479;49.044;8.716;2024-03-08T11:38:17;98581.19;;;8.52;54.31
25610;BME280;13479;49.044;8.716;2024-03-08T11:40:46;98589.69;;;8.34;53.11
25610;BME280;13479;49.044;8.716;2024-03-08T11:43:11;98591.22;;;8.48;53.63
25610;BME280;13479;49.044;8.716;2024-03-08T11:45:37;98556.31;;;8.55;54.20
25610;BME280;13479;49.044;8.716;2024-03-08T11:48:03;98582.72;;;8.76;52.65
25610;BME280;13479;49.044;8.716;2024-03-08T11:50:30;98580.88;;;8.67;53.04
25610;BME280;13479;49.044;8.716;2024-03-08T11:53:04;98536.59;;;8.69;54.04
25610;BME280;13479;49.044;8.716;2024-03-08T11:55:33;98548.66;;;8.61;53.70
25610;BME280;13479;49.044;8.716;2024-03-08T11:58:02;98563.31;;;8.65;53.33
25610;BME280;13479;49.044;8.716;2024-03-08T12:00:27;98543.94;;;8.44;53.85
25610;BME280;13479;49.044;8.716;2024-03-08T12:03:04;98553.00;;;8.41;53.11
25610;BME280;13479;49.044;8.716;2024-03-08T12:05:29;98545.19;;;8.18;54.04
25610;BME280;13479;49.044;8.716;2024-03-08T12:08:00;98488.81;;;8.18;54.45
25610;BME280;13479;49.044;8.716;2024-03-08T12:10:25;98481.84;;;8.17;54.64
25610;BME280;13479;49.044;8.716;2024-03-08T12:12:52;98477.00;;;8.22;54.38
25610;BME280;13479;49.044;8.716;2024-03-08T12:15:19;98484.91;;;7.91;54.81
25610;BME280;13479;49.044;8.716;2024-03-08T12:17:47;98447.63;;;7.94;55.63
25610;BME280;13479;49.044;8.716;2024-03-08T12:20:24;98429.06;;;7.84;55.65
25610;BME280;13479;49.044;8.716;2024-03-08T12:22:54;98438.38;;;7.79;55.34
25610;BME280;13479;49.044;8.716;2024-03-08T12:25:25;98421.00;;;7.86;55.81
25610;BME280;13479;49.044;8.716;2024-03-08T12:27:51;98430.69;;;7.76;55.76
25610;BME280;13479;49.044;8.716;2024-03-08T12:30:22;98392.94;;;7.64;56.70
25610;BME280;13479;49.044;8.716;2024-03-08T12:32:50;98421.53;;;7.58;55.88
25610;BME280;13479;49.044;8.716;2024-03-08T12:35:18;98385.97;;;7.63;56.83
25610;BME280;13479;49.044;8.716;2024-03-08T12:37:43;98399.50;;;7.69;56.08
25610;BME280;13479;49.044;8.716;2024-03-08T12:40:09;98384.88;;;7.65;57.09
25610;BME280;13479;49.044;8.716;2024-03-08T12:42:35;98408.00;;;7.73;56.28
25610;BME280;13479;49.044;8.716;2024-03-08T12:45:00;98363.47;;;7.68;57.82
25610;BME280;13479;49.044;8.716;2024-03-08T12:47:26;98394.72;;;7.84;56.47
25610;BME280;13479;49.044;8.716;2024-03-08T12:49:53;98396.25;;;7.87;56.94
25610;BME280;13479;49.044;8.716;2024-03-08T12:52:19;98363.19;;;7.93;57.35
25610;BME280;13479;49.044;8.716;2024-03-08T12:54:44;98379.00;;;8.14;56.02
25610;BME280;13479;49.044;8.716;2024-03-08T12:57:09;98396.50;;;8.05;56.61
25610;BME280;13479;49.044;8.716;2024-03-08T12:59:35;98375.56;;;8.23;56.54
25610;BME280;13479;49.044;8.716;2024-03-08T13:02:00;98409.75;;;8.46;55.07
25610;BME280;13479;49.044;8.716;2024-03-08T13:04:25;98410.81;;;8.33;55.43
25610;BME280;13479;49.044;8.716;2024-03-08T13:06:50;98398.16;;;8.37;55.89
25610;BME280;13479;49.044;8.716;2024-03-08T13:09:16;98392.28;;;8.55;55.53
25610;BME280;13479;49.044;8.716;2024-03-08T13:11:44;98386.69;;;8.58;55.91
25610;BME280;13479;49.044;8.716;2024-03-08T13:14:10;98394.22;;;8.62;56.03
25610;BME280;13479;49.044;8.716;2024-03-08T13:16:35;98418.78;;;8.74;54.51
25610;BME280;13479;49.044;8.716;2024-03-08T13:19:01;98404.69;;;8.74;55.13
25610;BME280;13479;49.044;8.716;2024-03-08T13:21:26;98398.44;;;8.75;55.29
25610;BME280;13479;49.044;8.716;2024-03-08T13:23:51;98414.19;;;8.76;54.59
25610;BME280;13479;49.044;8.716;2024-03-08T13:26:18;98383.69;;;8.72;55.55
25610;BME280;13479;49.044;8.716;2024-03-08T13:28:48;98378.97;;;8.95;55.19
25610;BME280;13479;49.044;8.716;2024-03-08T13:31:20;98398.63;;;9.12;54.35
25610;BME280;13479;49.044;8.716;2024-03-08T13:33:45;98388.88;;;9.33;54.30
25610;BME280;13479;49.044;8.716;2024-03-08T13:36:12;98391.94;;;9.18;53.38
25610;BME280;13479;49.044;8.716;2024-03-08T13:38:43;98370.34;;;9.13;54.21
25610;BME280;13479;49.044;8.716;2024-03-08T13:41:13;98374.38;;;9.07;53.78
25610;BME280;13479;49.044;8.716;2024-03-08T13:43:40;98382.34;;;9.07;53.88
25610;BME280;13479;49.044;8.716;2024-03-08T13:46:06;98349.44;;;9.10;54.14
25610;BME280;13479;49.044;8.716;2024-03-08T13:48:32;98344.41;;;9.17;54.37
25610;BME280;13479;49.044;8.716;2024-03-08T13:50:58;98338.56;;;9.13;54.53
25610;BME280;13479;49.044;8.716;2024-03-08T13:53:23;98332.97;;;9.26;54.46
25610;BME280;13479;49.044;8.716;2024-03-08T13:55:51;98322.22;;;9.47;54.43
25610;BME280;13479;49.044;8.716;2024-03-08T13:58:17;98347.59;;;9.50;53.09
25610;BME280;13479;49.044;8.716;2024-03-08T14:00:42;98356.09;;;9.53;53.13
25610;BME280;13479;49.044;8.716;2024-03-08T14:03:09;98337.16;;;9.48;53.39
25610;BME280;13479;49.044;8.716;2024-03-08T14:05:38;98314.13;;;9.49;53.96
25610;BME280;13479;49.044;8.716;2024-03-08T14:08:05;98305.56;;;9.74;53.81
25610;BME280;13479;49.044;8.716;2024-03-08T14:10:32;98347.91;;;9.94;52.73
25610;BME280;13479;49.044;8.716;2024-03-08T14:12:57;98336.47;;;9.94;52.63
25610;BME280;13479;49.044;8.716;2024-03-08T14:15:23;98326.25;;;9.99;52.30
25610;BME280;13479;49.044;8.716;2024-03-08T14:17:55;98329.25;;;10.14;52.06
25610;BME280;13479;49.044;8.716;2024-03-08T14:20:21;98326.75;;;10.12;52.12
25610;BME280;13479;49.044;8.716;2024-03-08T14:22:50;98306.25;;;10.04;52.65
25610;BME280;13479;49.044;8.716;2024-03-08T14:25:16;98316.66;;;10.26;51.97
25610;BME280;13479;49.044;8.716;2024-03-08T14:27:45;98314.78;;;10.36;52.05
25610;BME280;13479;49.044;8.716;2024-03-08T14:30:11;98323.00;;;10.43;50.90
25610;BME280;13479;49.044;8.716;2024-03-08T14:32:37;98318.41;;;10.35;51.27
25610;BME280;13479;49.044;8.716;2024-03-08T14:35:06;98284.53;;;10.29;51.97
25610;BME280;13479;49.044;8.716;2024-03-08T14:37:32;98303.28;;;10.45;51.34
25610;BME280;13479;49.044;8.716;2024-03-08T14:39:57;98316.28;;;10.48;50.96
25610;BME280;13479;49.044;8.716;2024-03-08T14:42:22;98297.16;;;10.45;51.15
25610;BME280;13479;49.044;8.716;2024-03-08T14:44:48;98298.69;;;10.47;50.76
25610;BME280;13479;49.044;8.716;2024-03-08T14:47:17;98295.00;;;10.58;50.58
25610;BME280;13479;49.044;8.716;2024-03-08T14:49:42;98302.09;;;10.58;50.22
25610;BME280;13479;49.044;8.716;2024-03-08T14:52:07;98265.69;;;10.50;51.48
25610;BME280;13479;49.044;8.716;2024-03-08T14:54:52;98277.84;;;10.53;50.73
25610;BME280;13479;49.044;8.716;2024-03-08T14:57:17;98282.25;;;10.62;50.30
25610;BME280;13479;49.044;8.716;2024-03-08T14:59:42;98268.75;;;10.55;50.63
25610;BME280;13479;49.044;8.716;2024-03-08T15:02:08;98265.63;;;10.60;50.01
25610;BME280;13479;49.044;8.716;2024-03-08T15:04:35;98261.31;;;10.59;49.87
25610;BME280;13479;49.044;8.716;2024-03-08T15:07:01;98266.97;;;10.64;49.90
25610;BME280;13479;49.044;8.716;2024-03-08T15:09:27;98243.41;;;10.61;50.42
25610;BME280;13479;49.044;8.716;2024-03-08T15:11:52;98222.41;;;10.68;50.56
25610;BME280;13479;49.044;8.716;2024-03-08T15:14:19;98244.16;;;10.71;50.27
25610;BME280;13479;49.044;8.716;2024-03-08T15:16:45;98229.16;;;10.62;50.73
25610;BME280;13479;49.044;8.716;2024-03-08T15:19:13;98247.03;;;10.78;49.88
25610;BME280;13479;49.044;8.716;2024-03-08T15:21:40;98236.56;;;10.76;49.71
25610;BME280;13479;49.044;8.716;2024-03-08T15:24:05;98237.41;;;10.77;49.59
25610;BME280;13479;49.044;8.716;2024-03-08T15:26:35;98208.44;;;10.65;49.94
25610;BME280;13479;49.044;8.716;2024-03-08T15:29:00;98208.34;;;10.75;49.98
25610;BME280;13479;49.044;8.716;2024-03-08T15:31:26;98216.25;;;10.67;50.35
25610;BME280;13479;49.044;8.716;2024-03-08T15:33:51;98238.91;;;10.79;49.71
25610;BME280;13479;49.044;8.716;2024-03-08T15:36:23;98208.03;;;10.78;50.27
25610;BME280;13479;49.044;8.716;2024-03-08T15:38:53;98188.47;;;10.79;50.45
25610;BME280;13479;49.044;8.716;2024-03-08T15:41:18;98164.41;;;10.81;51.03
25610;BME280;13479;49.044;8.716;2024-03-08T15:43:45;98198.38;;;10.95;49.99
25610;BME280;13479;49.044;8.716;2024-03-08T15:46:10;98201.88;;;10.96;49.68
25610;BME280;13479;49.044;8.716;2024-03-08T15:48:37;98211.44;;;10.89;49.77
25610;BME280;13479;49.044;8.716;2024-03-08T15:51:04;98214.44;;;10.86;49.30
25610;BME280;13479;49.044;8.716;2024-03-08T15:53:34;98193.50;;;10.82;49.76
25610;BME280;13479;49.044;8.716;2024-03-08T15:56:05;98199.78;;;10.81;49.69
25610;BME280;13479;49.044;8.716;2024-03-08T15:58:31;98186.44;;;10.73;49.95
25610;BME280;13479;49.044;8.716;2024-03-08T16:00:57;98168.16;;;10.70;50.36
25610;BME280;13479;49.044;8.716;2024-03-08T16:03:24;98171.50;;;10.72;50.11
25610;BME280;13479;49.044;8.716;2024-03-08T16:05:50;98148.09;;;10.68;50.86
25610;BME280;13479;49.044;8.716;2024-03-08T16:08:17;98132.81;;;10.70;50.60
25610;BME280;13479;49.044;8.716;2024-03-08T16:10:53;98134.00;;;10.75;50.44
25610;BME280;13479;49.044;8.716;2024-03-08T16:13:24;98148.31;;;10.74;50.46
25610;BME280;13479;49.044;8.716;2024-03-08T16:15:51;98146.56;;;10.65;50.31
25610;BME280;13479;49.044;8.716;2024-03-08T16:18:17;98134.72;;;10.59;50.72
25610;BME280;13479;49.044;8.716;2024-03-08T16:20:46;98110.44;;;10.46;51.54
25610;BME280;13479;49.044;8.716;2024-03-08T16:23:12;98115.16;;;10.60;50.80
25610;BME280;13479;49.044;8.716;2024-03-08T16:25:40;98102.06;;;10.59;50.80
25610;BME280;13479;49.044;8.716;2024-03-08T16:28:06;98074.50;;;10.52;51.52
25610;BME280;13479;49.044;8.716;2024-03-08T16:30:37;98075.31;;;10.52;51.25
25610;BME280;13479;49.044;8.716;2024-03-08T16:33:03;98064.84;;;10.50;51.84
25610;BME280;13479;49.044;8.716;2024-03-08T16:35:30;98059.47;;;10.42;52.02
25610;BME280;13479;49.044;8.716;2024-03-08T16:37:55;98053.09;;;10.35;52.28
25610;BME280;13479;49.044;8.716;2024-03-08T16:40:20;98053.25;;;10.33;52.33
25610;BME280;13479;49.044;8.716;2024-03-08T16:42:47;98063.78;;;10.43;51.94
25610;BME280;13479;49.044;8.716;2024-03-08T16:45:19;98059.38;;;10.34;52.33
25610;BME280;13479;49.044;8.716;2024-03-08T16:47:44;98056.69;;;10.26;52.22
25610;BME280;13479;49.044;8.716;2024-03-08T16:50:10;98063.97;;;10.24;52.42
25610;BME280;13479;49.044;8.716;2024-03-08T16:52:38;98040.59;;;10.27;52.46
25610;BME280;13479;49.044;8.716;2024-03-08T16:55:05;98051.97;;;10.19;52.55
25610;BME280;13479;49.044;8.716;2024-03-08T16:57:32;98042.47;;;10.09;52.67
25610;BME280;13479;49.044;8.716;2024-03-08T16:59:57;98038.59;;;10.03;52.88
25610;BME280;13479;49.044;8.716;2024-03-08T17:02:22;98024.72;;;9.91;53.14
25610;BME280;13479;49.044;8.716;2024-03-08T17:04:48;98019.53;;;9.81;53.75
25610;BME280;13479;49.044;8.716;2024-03-08T17:07:14;98020.06;;;9.85;53.39
25610;BME280;13479;49.044;8.716;2024-03-08T17:09:40;98018.16;;;9.77;53.81
25610;BME280;13479;49.044;8.716;2024-03-08T17:12:06;98020.13;;;9.75;54.12
25610;BME280;13479;49.044;8.716;2024-03-08T17:14:35;98017.09;;;9.70;53.73
25610;BME280;13479;49.044;8.716;2024-03-08T17:17:05;98016.72;;;9.65;53.87
25610;BME280;13479;49.044;8.716;2024-03-08T17:19:30;98007.19;;;9.54;54.23
25610;BME280;13479;49.044;8.716;2024-03-08T17:21:55;97998.78;;;9.58;54.28
25610;BME280;13479;49.044;8.716;2024-03-08T17:24:21;98002.19;;;9.51;54.20
25610;BME280;13479;49.044;8.716;2024-03-08T17:26:50;98002.63;;;9.46;54.44
25610;BME280;13479;49.044;8.716;2024-03-08T17:29:16;98002.94;;;9.43;54.58
25610;BME280;13479;49.044;8.716;2024-03-08T17:31:41;98001.94;;;9.44;54.53
25610;BME280;13479;49.044;8.716;2024-03-08T17:34:10;98021.78;;;9.40;54.61
25610;BME280;13479;49.044;8.716;2024-03-08T17:36:35;98000.72;;;9.20;55.01
25610;BME280;13479;49.044;8.716;2024-03-08T17:39:00;98003.75;;;9.25;54.99
25610;BME280;13479;49.044;8.716;2024-03-08T17:41:26;98012.06;;;9.31;54.44
25610;BME280;13479;49.044;8.716;2024-03-08T17:43:52;98008.28;;;9.15;55.03
25610;BME280;13479;49.044;8.716;2024-03-08T17:46:17;97994.91;;;9.07;55.45
25610;BME280;13479;49.044;8.716;2024-03-08T17:48:44;97989.63;;;9.07;55.34
25610;BME280;13479;49.044;8.716;2024-03-08T17:51:09;97999.63;;;9.13;54.93
25610;BME280;13479;49.044;8.716;2024-03-08T17:53:37;98008.56;;;9.12;54.84
25610;BME280;13479;49.044;8.716;2024-03-08T17:56:03;98007.59;;;9.13;54.55
25610;BME280;13479;49.044;8.716;2024-03-08T17:58:31;98017.78;;;9.08;54.80
25610;BME280;13479;49.044;8.716;2024-03-08T18:00:56;98002.66;;;9.00;55.00
25610;BME280;13479;49.044;8.716;2024-03-08T18:03:22;98006.06;;;9.10;54.53
25610;BME280;13479;49.044;8.716;2024-03-08T18:05:52;98007.88;;;9.10;54.33
25610;BME280;13479;49.044;8.716;2024-03-08T18:08:18;98000.38;;;9.05;54.51
25610;BME280;13479;49.044;8.716;2024-03-08T18:10:43;98000.41;;;8.95;54.38